Time;durP1;ratioP1;P1;durP2;ratioP2;P2;SDS_P1;SDS_P2;PMS_P1;PMS_P2;Temp;Humidity;BMP_temperature;BMP_pressure;BME280_temperature;BME280_humidity;BME280_pressure;Samples;Min_cycle;Max_cycle;Signal;HPM_P1;HPM_P2
2023/06/03 00:00:56;;;;;;;3.63;1.00;;;;;;;13.25;80.22;102427.69;4966003;28;20516;-78
2023/06/03 00:03:24;;;;;;;1.02;0.90;;;;;;;13.23;80.66;102437.38;4982422;28;20046;-78
2023/06/03 00:05:51;;;;;;;2.38;0.93;;;;;;;13.21;81.38;102427.59;4971051;28;20050;-78
2023/06/03 00:08:19;;;;;;;3.55;0.93;;;;;;;13.19;82.03;102430.22;4930582;28;20054;-78
2023/06/03 00:10:46;;;;;;;2.00;1.00;;;;;;;13.20;82.45;102437.31;4975805;28;20496;-78
2023/06/03 00:13:13;;;;;;;1.90;1.02;;;;;;;13.20;82.27;102442.59;4964260;28;20050;-78
2023/06/03 00:15:41;;;;;;;1.15;1.00;;;;;;;13.20;82.53;102445.25;4976531;28;20058;-78
2023/06/03 00:18:08;;;;;;;4.15;1.10;;;;;;;13.19;82.50;102439.91;4963228;28;20042;-77
2023/06/03 00:20:36;;;;;;;1.48;1.25;;;;;;;13.16;83.21;102440.75;4966955;28;20050;-78
2023/06/03 00:23:06;;;;;;;1.48;1.05;;;;;;;13.14;82.68;102441.59;4944808;28;20054;-78
2023/06/03 00:25:34;;;;;;;1.38;0.85;;;;;;;13.14;82.82;102445.13;4977982;28;20050;-78
2023/06/03 00:28:02;;;;;;;2.00;0.80;;;;;;;13.12;82.17;102438.94;4973652;28;20046;-78
2023/06/03 00:30:31;;;;;;;2.33;1.05;;;;;;;13.11;83.21;102437.13;4983028;28;20046;-78
2023/06/03 00:32:58;;;;;;;4.50;1.00;;;;;;;13.07;82.68;102441.47;4988437;28;20058;-78
2023/06/03 00:35:26;;;;;;;0.98;0.82;;;;;;;13.05;82.65;102444.97;4969392;28;20863;-78
2023/06/03 00:37:54;;;;;;;1.80;0.80;;;;;;;13.05;82.67;102442.31;4987379;28;20047;-78
2023/06/03 00:40:21;;;;;;;3.72;1.08;;;;;;;13.02;83.67;102439.59;4961458;28;20049;-78
2023/06/03 00:42:49;;;;;;;1.23;1.13;;;;;;;12.98;85.03;102436.00;4971338;28;20415;-78
2023/06/03 00:45:16;;;;;;;3.08;1.00;;;;;;;12.95;85.90;102440.34;4944981;28;20047;-78
2023/06/03 00:47:44;;;;;;;2.15;1.00;;;;;;;12.90;86.43;102434.97;4980581;28;20065;-78
2023/06/03 00:50:13;;;;;;;1.40;0.88;;;;;;;12.87;86.40;102440.22;4964893;28;20054;-78
2023/06/03 00:52:41;;;;;;;1.42;0.77;;;;;;;12.82;86.96;102450.72;4976176;28;20047;-77
2023/06/03 00:55:09;;;;;;;2.08;0.98;;;;;;;12.76;86.60;102445.31;4954076;28;20054;-78
2023/06/03 00:57:36;;;;;;;1.70;0.90;;;;;;;12.73;86.41;102449.66;4968428;28;20065;-77
2023/06/03 01:00:05;;;;;;;3.33;1.35;;;;;;;12.70;86.19;102445.16;4952352;28;20097;-78
2023/06/03 01:02:33;;;;;;;1.58;0.80;;;;;;;12.66;86.61;102444.25;4983711;28;20043;-79
2023/06/03 01:05:03;;;;;;;3.30;0.80;;;;;;;12.64;86.16;102450.34;4970339;28;20046;-78
2023/06/03 01:08:32;;;;;;;2.42;1.10;;;;;;;12.60;85.73;102443.22;4980941;28;20030;-78
2023/06/03 01:11:15;;;;;;;1.02;0.93;;;;;;;12.55;86.61;102440.50;4945691;28;20069;-77
2023/06/03 01:13:50;;;;;;;2.83;1.00;;;;;;;12.55;87.07;102455.44;4993128;28;20053;-78
2023/06/03 01:16:23;;;;;;;2.03;0.85;;;;;;;12.53;87.11;102443.94;4961829;28;20833;-77
2023/06/03 01:18:51;;;;;;;1.58;1.10;;;;;;;12.51;87.13;102445.66;4985034;28;20058;-78
2023/06/03 01:21:19;;;;;;;2.35;0.80;;;;;;;12.51;87.07;102448.31;4983004;28;20903;-78
2023/06/03 01:23:48;;;;;;;3.03;0.88;;;;;;;12.50;87.04;102446.53;4987568;28;20511;-78
2023/06/03 01:26:16;;;;;;;3.13;1.10;;;;;;;12.51;87.17;102453.59;4927655;28;20050;-78
2023/06/03 01:28:46;;;;;;;1.45;0.77;;;;;;;12.50;86.45;102444.78;4971346;28;20061;-78
2023/06/03 01:31:13;;;;;;;2.08;0.75;;;;;;;12.52;86.04;102450.09;4974176;28;20449;-78
2023/06/03 01:33:41;;;;;;;2.33;0.93;;;;;;;12.52;86.11;102450.09;4932143;28;20054;-78
2023/06/03 01:36:08;;;;;;;1.90;1.00;;;;;;;12.53;85.84;102452.75;4968730;28;20046;-78
2023/06/03 01:38:36;;;;;;;2.20;0.88;;;;;;;12.52;86.08;102448.34;4967361;28;20043;-78
2023/06/03 01:41:04;;;;;;;2.42;1.00;;;;;;;12.51;85.07;102459.75;4957947;28;20475;-78
2023/06/03 01:43:32;;;;;;;2.40;0.80;;;;;;;12.51;86.30;102456.25;4960335;28;20050;-79
2023/06/03 01:46:01;;;;;;;1.20;1.10;;;;;;;12.48;85.73;102460.59;4978939;28;20512;-78
2023/06/03 01:48:28;;;;;;;1.45;1.00;;;;;;;12.47;85.78;102457.94;4962607;28;20057;-79
2023/06/03 01:50:56;;;;;;;1.30;1.15;;;;;;;12.46;85.68;102453.50;4960005;28;20058;-77
2023/06/03 01:53:23;;;;;;;1.80;1.00;;;;;;;12.43;85.26;102451.69;4983929;28;20054;-78
2023/06/03 01:55:51;;;;;;;1.55;0.90;;;;;;;12.43;85.29;102449.03;4985715;28;20509;-78
2023/06/03 01:58:19;;;;;;;1.95;0.80;;;;;;;12.42;86.14;102452.56;4934420;28;20832;-78
2023/06/03 02:00:47;;;;;;;1.35;0.70;;;;;;;12.41;86.55;102457.81;4960862;28;20051;-77
2023/06/03 02:03:15;;;;;;;1.55;0.90;;;;;;;12.37;86.61;102456.84;4967178;28;20783;-76
2023/06/03 02:05:43;;;;;;;1.05;1.00;;;;;;;12.36;86.27;102457.72;4956250;28;20044;-76
2023/06/03 02:08:10;;;;;;;1.20;0.63;;;;;;;12.34;86.93;102451.47;4964528;28;20256;-76
2023/06/03 02:10:38;;;;;;;1.77;1.23;;;;;;;12.34;86.64;102455.88;4971431;28;20058;-77
2023/06/03 02:13:05;;;;;;;1.92;0.73;;;;;;;12.31;87.28;102448.78;4940545;28;20050;-77
2023/06/03 02:15:32;;;;;;;2.42;0.80;;;;;;;12.31;87.61;102451.44;4983365;28;20046;-77
2023/06/03 02:18:00;;;;;;;2.42;0.93;;;;;;;12.28;88.70;102452.25;4974609;28;20054;-77
2023/06/03 02:20:27;;;;;;;0.93;0.88;;;;;;;12.26;89.07;102453.06;4946798;28;20058;-78
2023/06/03 02:22:57;;;;;;;4.60;1.00;;;;;;;12.21;89.09;102455.63;4960790;28;20419;-77
2023/06/03 02:25:24;;;;;;;0.82;0.82;;;;;;;12.19;90.19;102446.78;4979345;28;20046;-77
2023/06/03 02:27:54;;;;;;;2.08;0.88;;;;;;;12.15;90.43;102452.81;4985202;28;20034;-77
2023/06/03 02:30:22;;;;;;;3.00;0.90;;;;;;;12.12;90.28;102449.22;4969469;28;20089;-77
2023/06/03 02:32:49;;;;;;;2.50;0.80;;;;;;;12.09;90.50;102450.94;4972695;28;20049;-78
2023/06/03 02:35:17;;;;;;;2.15;1.02;;;;;;;12.06;91.14;102445.59;4957683;28;20047;-78
2023/06/03 02:37:45;;;;;;;0.90;0.80;;;;;;;12.00;91.42;102445.47;4988445;28;20058;-77
2023/06/03 02:40:12;;;;;;;5.82;1.05;;;;;;;11.95;92.30;102449.75;4969122;28;20061;-77
2023/06/03 02:42:40;;;;;;;2.50;1.20;;;;;;;11.90;92.60;102451.38;4987947;28;20050;-77
2023/06/03 02:45:09;;;;;;;4.15;0.95;;;;;;;11.84;93.36;102457.38;4941854;28;20046;-77
2023/06/03 02:47:37;;;;;;;0.80;0.80;;;;;;;11.77;93.20;102454.56;4971455;28;20042;-77
2023/06/03 02:50:05;;;;;;;1.10;1.00;;;;;;;11.71;93.91;102460.59;4973938;28;20051;-77
2023/06/03 02:52:36;;;;;;;1.73;0.88;;;;;;;11.66;94.90;102455.22;4987196;28;20050;-78
2023/06/03 02:55:05;;;;;;;2.25;0.98;;;;;;;11.59;95.76;102463.81;4965594;28;20054;-77
2023/06/03 02:57:32;;;;;;;1.90;1.27;;;;;;;11.52;96.08;102460.13;4957303;28;20061;-77
2023/06/03 03:00:00;;;;;;;2.30;0.98;;;;;;;11.46;95.66;102462.63;4912296;28;20053;-77
2023/06/03 03:02:27;;;;;;;5.70;1.52;;;;;;;11.43;96.94;102469.56;4976798;28;20492;-77
2023/06/03 03:04:54;;;;;;;1.95;1.33;;;;;;;11.36;97.84;102471.16;4954171;28;20054;-77
2023/06/03 03:07:26;;;;;;;3.03;1.30;;;;;;;11.31;97.95;102472.78;4949593;28;20130;-77
2023/06/03 03:09:54;;;;;;;1.80;1.00;;;;;;;11.28;98.47;102472.69;4968054;28;20054;-77
2023/06/03 03:12:21;;;;;;;1.27;0.95;;;;;;;11.25;98.99;102475.28;4981652;28;20050;-77
2023/06/03 03:14:49;;;;;;;1.25;1.10;;;;;;;11.22;100.00;102477.81;4948415;28;20045;-77
2023/06/03 03:17:17;;;;;;;2.20;0.80;;;;;;;11.19;100.00;102483.00;4933594;28;20049;-77
2023/06/03 03:19:45;;;;;;;2.33;1.00;;;;;;;11.14;100.00;102472.34;4976553;28;20051;-77
2023/06/03 03:22:13;;;;;;;1.20;1.10;;;;;;;11.11;100.00;102478.44;4968915;28;20423;-77
2023/06/03 03:24:42;;;;;;;3.05;1.10;;;;;;;11.09;100.00;102479.22;4949534;28;20117;-77
2023/06/03 03:27:10;;;;;;;1.87;1.20;;;;;;;11.07;100.00;102475.66;4962587;28;20423;-77
2023/06/03 03:29:44;;;;;;;0.82;0.82;;;;;;;11.04;100.00;102472.94;4954201;28;20054;-77
2023/06/03 03:32:13;;;;;;;1.50;1.02;;;;;;;11.04;100.00;102465.94;4932307;28;20050;-77
2023/06/03 03:34:51;;;;;;;3.30;1.23;;;;;;;11.04;100.00;102467.66;4966823;28;20046;-76
2023/06/03 03:37:18;;;;;;;7.15;1.33;;;;;;;11.04;100.00;102472.94;4956327;28;20061;-77
2023/06/03 03:39:47;;;;;;;1.45;1.13;;;;;;;11.04;100.00;102472.94;4966110;28;20384;-78
2023/06/03 03:42:14;;;;;;;1.38;0.80;;;;;;;11.04;100.00;102471.19;4983395;28;20050;-77
2023/06/03 03:44:42;;;;;;;1.20;0.90;;;;;;;11.05;100.00;102461.53;4967209;28;20069;-77
2023/06/03 03:47:20;;;;;;;4.18;1.02;;;;;;;11.09;100.00;102474.84;4920767;28;20058;-77
2023/06/03 03:49:47;;;;;;;2.35;1.17;;;;;;;11.13;100.00;102478.47;4980110;28;20058;-77
2023/06/03 03:52:26;;;;;;;3.30;1.35;;;;;;;11.16;100.00;102472.38;4969994;28;20039;-77
2023/06/03 03:55:00;;;;;;;2.38;0.90;;;;;;;11.23;100.00;102476.97;4969479;28;20055;-78
2023/06/03 03:57:31;;;;;;;1.48;1.10;;;;;;;11.27;100.00;102471.81;4979948;28;20055;-77
2023/06/03 03:59:59;;;;;;;3.38;1.30;;;;;;;11.36;100.00;102480.81;4971973;28;20058;-77
2023/06/03 04:02:27;;;;;;;1.00;0.90;;;;;;;11.43;100.00;102461.66;4903480;28;20054;-77
2023/06/03 04:04:56;;;;;;;3.55;1.17;;;;;;;11.52;100.00;102465.41;4978459;28;20050;-77
2023/06/03 04:07:25;;;;;;;2.88;1.00;;;;;;;11.61;100.00;102461.22;4949357;28;20051;-77
2023/06/03 04:09:52;;;;;;;2.38;1.13;;;;;;;11.79;100.00;102472.22;4960999;28;20419;-77
2023/06/03 04:12:28;;;;;;;3.70;1.23;;;;;;;12.32;100.00;102469.06;4976776;28;20047;-77
2023/06/03 04:14:57;;;;;;;1.67;1.08;;;;;;;13.20;100.00;102468.19;4978030;28;20050;-77
2023/06/03 04:17:26;;;;;;;1.95;1.00;;;;;;;14.09;97.10;102461.72;4942242;28;20057;-76
2023/06/03 04:19:55;;;;;;;1.75;0.88;;;;;;;14.83;92.11;102462.69;4948488;28;20073;-77
2023/06/03 04:22:28;;;;;;;2.58;1.00;;;;;;;15.62;90.22;102460.78;4972617;28;20050;-77
2023/06/03 04:24:57;;;;;;;2.03;1.30;;;;;;;16.20;86.42;102458.56;4975480;28;20578;-77
2023/06/03 04:27:31;;;;;;;3.38;1.40;;;;;;;16.81;82.78;102465.03;4984144;28;20062;-77
2023/06/03 04:30:01;;;;;;;1.50;1.20;;;;;;;17.34;81.07;102462.47;4968272;28;20050;-77
2023/06/03 04:32:29;;;;;;;1.40;1.30;;;;;;;17.71;79.77;102469.59;4956171;28;20065;-77
2023/06/03 04:34:57;;;;;;;4.00;1.38;;;;;;;18.06;76.07;102461.56;4945099;28;20057;-77
2023/06/03 04:37:26;;;;;;;2.92;1.00;;;;;;;18.41;73.77;102462.34;4985062;28;20053;-77
2023/06/03 04:39:54;;;;;;;1.20;1.10;;;;;;;18.86;75.24;102463.94;4971024;28;20072;-77
2023/06/03 04:42:22;;;;;;;12.93;8.02;;;;;;;18.96;75.55;102466.56;4969208;28;20061;-78
2023/06/03 04:44:58;;;;;;;4.03;1.50;;;;;;;19.04;72.57;102465.63;4999757;28;20483;-77
2023/06/03 04:47:31;;;;;;;4.65;1.30;;;;;;;19.15;70.44;102464.66;4944901;28;20054;-78
2023/06/03 04:50:00;;;;;;;4.60;1.20;;;;;;;18.98;68.27;102471.03;4948481;28;20750;-77
2023/06/03 04:52:31;;;;;;;1.70;1.00;;;;;;;18.86;67.87;102465.75;4952125;28;20050;-77
2023/06/03 04:54:58;;;;;;;4.13;0.95;;;;;;;18.53;66.28;102470.31;4954216;28;20046;-77
2023/06/03 04:57:27;;;;;;;3.20;1.17;;;;;;;18.35;66.52;102473.94;4976937;28;20069;-77
2023/06/03 04:59:55;;;;;;;1.70;1.10;;;;;;;18.53;67.51;102464.09;4979155;28;20792;-77
2023/06/03 05:02:29;;;;;;;3.13;0.98;;;;;;;18.98;65.41;102464.78;4951863;28;20098;-77
2023/06/03 05:04:59;;;;;;;1.35;1.02;;;;;;;19.49;64.86;102457.31;4924619;28;20067;-77
2023/06/03 05:07:26;;;;;;;3.50;1.05;;;;;;;19.89;65.45;102458.75;4984388;28;20051;-77
2023/06/03 05:09:54;;;;;;;2.58;0.95;;;;;;;20.01;61.46;102448.78;4965498;28;20057;-77
2023/06/03 05:12:23;;;;;;;2.03;1.05;;;;;;;20.19;59.94;102450.38;4966649;28;20058;-77
2023/06/03 05:14:51;;;;;;;3.45;1.38;;;;;;;20.29;58.59;102445.81;4981343;28;20076;-77
2023/06/03 05:17:18;;;;;;;6.68;1.33;;;;;;;20.55;57.92;102449.97;4968281;28;20050;-78
2023/06/03 05:19:45;;;;;;;2.85;1.50;;;;;;;20.74;56.17;102453.31;4919168;28;20041;-77
2023/06/03 05:22:13;;;;;;;1.67;0.93;;;;;;;20.99;56.48;102444.00;4936330;28;20054;-77
2023/06/03 05:24:40;;;;;;;3.05;1.10;;;;;;;21.35;57.01;102448.81;4954587;28;20054;-77
2023/06/03 05:27:09;;;;;;;2.60;1.20;;;;;;;21.75;56.46;102457.06;5000286;28;20057;-77
2023/06/03 05:29:37;;;;;;;1.27;1.10;;;;;;;21.97;53.95;102448.66;4959262;28;20043;-78
2023/06/03 05:32:05;;;;;;;6.40;1.15;;;;;;;22.18;51.32;102452.69;4981320;28;20719;-77
2023/06/03 05:34:34;;;;;;;2.00;0.85;;;;;;;22.31;50.28;102456.94;4962598;28;20047;-77
2023/06/03 05:37:03;;;;;;;2.60;1.05;;;;;;;22.31;48.40;102459.63;4938148;28;20779;-77
2023/06/03 05:39:30;;;;;;;2.55;1.10;;;;;;;22.50;49.63;102449.38;4953226;28;20095;-77
2023/06/03 05:41:59;;;;;;;1.58;1.20;;;;;;;22.80;47.76;102463.06;4976866;28;20058;-77
2023/06/03 05:44:27;;;;;;;1.52;1.00;;;;;;;22.91;46.69;102457.44;4965579;28;20057;-77
2023/06/03 05:46:55;;;;;;;4.20;1.27;;;;;;;23.13;45.82;102452.47;4972872;28;20050;-77
2023/06/03 05:49:24;;;;;;;2.75;1.17;;;;;;;23.34;44.74;102465.38;4984468;28;20852;-77
2023/06/03 05:51:51;;;;;;;3.35;1.20;;;;;;;23.35;44.04;102455.53;4922229;28;20416;-78
2023/06/03 05:54:19;;;;;;;3.28;1.23;;;;;;;23.46;43.61;102460.63;4977323;28;20058;-76
2023/06/03 05:56:47;;;;;;;1.85;0.77;;;;;;;23.61;43.43;102465.63;4949755;28;20753;-78
2023/06/03 05:59:17;;;;;;;0.95;0.82;;;;;;;23.77;42.68;102462.53;4982685;28;20046;-78
2023/06/03 06:01:44;;;;;;;2.25;1.10;;;;;;;23.86;40.89;102459.63;4948426;28;20062;-78
2023/06/03 06:04:12;;;;;;;2.80;1.00;;;;;;;23.76;40.53;102456.25;4963615;28;20054;-77
2023/06/03 06:06:40;;;;;;;3.13;1.02;;;;;;;23.72;39.51;102458.16;4914193;28;20061;-78
2023/06/03 06:09:07;;;;;;;1.15;1.05;;;;;;;23.67;40.48;102462.78;4974255;28;20055;-78
2023/06/03 06:11:35;;;;;;;2.47;1.20;;;;;;;23.49;39.06;102464.13;4957508;28;20054;-78
2023/06/03 06:14:04;;;;;;;1.27;1.00;;;;;;;23.03;38.21;102467.03;4971017;28;20047;-78
2023/06/03 06:16:31;;;;;;;1.73;0.98;;;;;;;22.81;39.05;102472.88;4973985;28;20060;-77
2023/06/03 06:18:59;;;;;;;1.25;1.13;;;;;;;22.66;38.90;102468.72;4963354;28;20089;-78
2023/06/03 06:21:29;;;;;;;1.20;1.08;;;;;;;22.27;38.86;102462.38;4955004;28;20500;-78
2023/06/03 06:23:56;;;;;;;2.38;1.10;;;;;;;21.91;40.40;102467.53;4956496;28;20061;-78
2023/06/03 06:26:25;;;;;;;3.40;1.20;;;;;;;21.67;40.01;102468.88;4967883;28;20054;-77
2023/06/03 06:28:55;;;;;;;3.50;1.20;;;;;;;21.55;41.06;102473.53;4967945;28;20054;-78
2023/06/03 06:31:23;;;;;;;5.15;1.27;;;;;;;21.68;41.30;102466.16;4971921;28;20061;-77
2023/06/03 06:33:53;;;;;;;2.63;1.00;;;;;;;21.80;40.85;102459.69;4983217;28;20051;-78
2023/06/03 06:36:47;;;;;;;1.77;1.20;;;;;;;21.65;39.75;102471.56;4986395;28;20054;-78
2023/06/03 06:39:33;;;;;;;1.17;1.08;;;;;;;21.33;39.19;102469.41;4928257;28;20047;-78
2023/06/03 06:42:33;;;;;;;1.88;1.00;;;;;;;21.00;41.46;102475.25;4962020;28;20050;-78
2023/06/03 06:45:20;;;;;;;1.17;1.05;;;;;;;20.79;41.46;102467.50;4982389;28;20500;-78
2023/06/03 06:47:48;;;;;;;1.98;0.90;;;;;;;20.47;42.40;102465.22;4981186;28;20042;-78
2023/06/03 06:50:50;;;;;;;1.45;1.35;;;;;;;20.20;40.94;102473.56;4951466;28;20038;-78
2023/06/03 06:53:21;;;;;;;2.92;1.08;;;;;;;19.70;42.11;102484.72;4922728;28;20480;-77
2023/06/03 06:55:52;;;;;;;4.60;1.25;;;;;;;19.45;44.44;102476.91;4985566;28;20046;-78
2023/06/03 06:58:30;;;;;;;5.13;1.20;;;;;;;19.47;45.63;102476.03;4973114;28;20058;-78
2023/06/03 07:01:00;;;;;;;1.83;1.02;;;;;;;19.56;46.62;102475.03;4982088;28;20061;-78
2023/06/03 07:03:28;;;;;;;4.15;1.55;;;;;;;19.56;47.25;102476.84;4963338;28;20054;-78
2023/06/03 07:05:56;;;;;;;1.20;1.02;;;;;;;19.42;45.97;102471.63;4951503;28;20049;-77
2023/06/03 07:08:26;;;;;;;2.38;1.15;;;;;;;19.38;47.68;102488.56;4979762;28;20508;-78
2023/06/03 07:11:00;;;;;;;4.88;1.52;;;;;;;19.15;48.69;102478.94;4943194;28;20054;-77
2023/06/03 07:13:30;;;;;;;2.38;1.38;;;;;;;19.01;48.74;102476.31;4982458;28;20065;-77
2023/06/03 07:16:00;;;;;;;1.55;1.30;;;;;;;18.92;49.74;102484.38;4989796;28;20077;-78
2023/06/03 07:18:30;;;;;;;2.05;1.00;;;;;;;18.82;50.25;102474.66;4943273;28;20674;-77
2023/06/03 07:20:58;;;;;;;1.98;1.40;;;;;;;18.81;51.50;102480.88;4966631;28;20046;-77
2023/06/03 07:23:27;;;;;;;5.82;1.00;;;;;;;18.82;51.16;102486.22;4967678;28;20066;-77
2023/06/03 07:25:56;;;;;;;2.30;1.30;;;;;;;18.91;51.47;102485.31;4940375;28;20065;-79
2023/06/03 07:28:33;;;;;;;2.15;1.25;;;;;;;18.99;53.43;102493.28;4944835;28;20050;-78
2023/06/03 07:31:19;;;;;;;1.20;1.10;;;;;;;18.97;52.81;102492.41;4962863;28;20114;-77
2023/06/03 07:33:50;;;;;;;1.50;1.20;;;;;;;18.89;54.69;102492.44;4969081;28;20867;-78
2023/06/03 07:36:27;;;;;;;1.73;1.10;;;;;;;18.84;53.55;102496.91;4970824;28;20061;-78
2023/06/03 07:39:08;;;;;;;1.35;1.20;;;;;;;19.02;52.10;102495.94;4975313;28;20038;-78
2023/06/03 07:41:38;;;;;;;5.38;1.13;;;;;;;18.98;51.67;102499.50;4939884;28;20046;-78
2023/06/03 07:44:11;;;;;;;5.53;1.45;;;;;;;18.90;52.54;102491.53;4986511;28;20050;-78
2023/06/03 07:46:40;;;;;;;1.30;0.90;;;;;;;18.77;50.43;102496.03;4957716;28;20057;-78
2023/06/03 07:49:13;;;;;;;1.40;1.30;;;;;;;18.65;53.06;102491.63;5003262;28;20551;-78
2023/06/03 07:51:47;;;;;;;5.25;1.55;;;;;;;18.49;53.29;102498.81;4977702;28;20053;-77
2023/06/03 07:54:15;;;;;;;3.90;1.33;;;;;;;18.45;53.75;102493.47;4960587;28;20389;-78
2023/06/03 07:56:44;;;;;;;4.75;1.52;;;;;;;18.28;53.94;102493.56;4932361;28;20933;-78
2023/06/03 07:59:14;;;;;;;3.33;1.35;;;;;;;18.12;53.47;102490.00;4987031;28;20057;-78
2023/06/03 08:01:42;;;;;;;5.10;1.30;;;;;;;18.03;55.87;102485.56;4965716;28;20686;-78
2023/06/03 08:04:19;;;;;;;4.72;1.65;;;;;;;18.01;55.68;102489.16;4958166;28;20054;-77
2023/06/03 08:06:49;;;;;;;3.72;1.40;;;;;;;17.87;56.05;102495.38;4975996;28;20562;-78
2023/06/03 08:09:32;;;;;;;4.45;1.48;;;;;;;17.76;56.82;102488.25;4964278;28;20058;-78
2023/06/03 08:12:07;;;;;;;1.65;1.10;;;;;;;17.63;57.90;102492.69;4964487;28;20495;-78
2023/06/03 08:14:37;;;;;;;2.50;1.40;;;;;;;17.57;58.92;102490.03;4930893;28;20065;-77
2023/06/03 08:17:13;;;;;;;1.13;1.02;;;;;;;17.59;58.22;102490.94;4981721;28;20045;-78
2023/06/03 08:19:45;;;;;;;1.40;1.30;;;;;;;17.58;58.96;102494.47;4950306;28;20089;-78
2023/06/03 08:22:30;;;;;;;1.90;1.33;;;;;;;17.56;60.00;102490.91;4984253;28;20057;-78
2023/06/03 08:24:57;;;;;;;1.52;1.40;;;;;;;17.53;58.76;102497.16;4983031;28;20047;-78
2023/06/03 08:27:25;;;;;;;2.38;1.50;;;;;;;17.38;57.05;102498.03;4968157;28;20549;-78
2023/06/03 08:29:52;;;;;;;3.17;1.17;;;;;;;17.27;59.19;102494.44;4936992;28;20046;-77
2023/06/03 08:32:19;;;;;;;1.25;1.00;;;;;;;17.27;59.71;102502.44;4964411;28;20054;-78
2023/06/03 08:34:47;;;;;;;1.83;1.10;;;;;;;17.21;58.95;102498.00;4955959;28;20059;-78
2023/06/03 08:37:14;;;;;;;1.70;1.20;;;;;;;17.19;58.95;102498.88;4976841;28;20058;-78
2023/06/03 08:39:42;;;;;;;3.22;1.13;;;;;;;17.28;59.88;102490.91;4962107;28;20050;-77
2023/06/03 08:42:15;;;;;;;1.95;1.20;;;;;;;17.40;60.91;102495.38;4971183;28;20420;-78
2023/06/03 08:45:04;;;;;;;2.88;1.20;;;;;;;17.56;59.02;102494.50;4950080;28;20073;-78
2023/06/03 08:48:04;;;;;;;1.77;1.00;;;;;;;17.61;57.51;102484.69;4982035;28;20057;-78
2023/06/03 08:50:33;;;;;;;1.38;0.90;;;;;;;17.76;52.75;102491.81;4948372;28;20059;-78
2023/06/03 08:53:08;;;;;;;1.83;1.05;;;;;;;17.73;52.22;102497.13;4977827;28;20050;-78
2023/06/03 08:55:38;;;;;;;3.22;1.20;;;;;;;17.78;51.52;102484.69;4970843;28;20050;-78
2023/06/03 08:58:12;;;;;;;0.88;0.65;;;;;;;17.84;50.72;102486.47;4972627;28;20054;-78
2023/06/03 09:00:41;;;;;;;1.10;0.80;;;;;;;17.83;48.00;102493.59;4935949;28;20038;-78
2023/06/03 09:03:11;;;;;;;1.42;0.80;;;;;;;17.82;45.92;102489.13;4975557;28;20428;-77
2023/06/03 09:05:41;;;;;;;1.63;0.77;;;;;;;17.84;45.29;102479.38;4942057;28;20058;-77
2023/06/03 09:08:11;;;;;;;0.67;0.57;;;;;;;17.96;44.66;102477.59;4966223;28;20053;-77
2023/06/03 09:10:39;;;;;;;1.20;0.80;;;;;;;18.05;44.91;102480.25;4955633;28;20049;-78
2023/06/03 09:13:07;;;;;;;3.20;0.82;;;;;;;18.20;44.82;102480.19;4982612;28;20054;-77
2023/06/03 09:15:37;;;;;;;1.42;0.70;;;;;;;18.27;44.16;102478.41;4915428;28;20059;-78
2023/06/03 09:18:04;;;;;;;1.67;0.50;;;;;;;18.30;44.80;102475.75;4973761;28;20058;-77
2023/06/03 09:20:31;;;;;;;2.08;0.82;;;;;;;18.46;44.93;102477.47;4939118;28;20051;-78
2023/06/03 09:22:59;;;;;;;1.38;1.02;;;;;;;18.46;43.97;102476.56;4961769;28;20053;-78
2023/06/03 09:25:27;;;;;;;1.75;1.38;;;;;;;18.42;43.97;102477.50;4951327;28;20042;-78
2023/06/03 09:27:54;;;;;;;4.25;1.40;;;;;;;18.43;43.08;102479.25;4986098;28;20062;-77
2023/06/03 09:30:21;;;;;;;1.70;1.02;;;;;;;18.38;42.92;102484.63;4954495;28;20061;-77
2023/06/03 09:32:49;;;;;;;1.00;1.00;;;;;;;18.33;43.21;102475.72;4971067;28;20046;-77
2023/06/03 09:35:19;;;;;;;0.73;0.70;;;;;;;18.33;43.22;102473.06;4965418;28;20047;-77
2023/06/03 09:38:06;;;;;;;0.85;0.70;;;;;;;18.41;43.87;102473.94;4971665;28;20042;-76
2023/06/03 09:40:34;;;;;;;2.00;0.80;;;;;;;18.56;44.64;102472.97;4981465;28;20053;-76
2023/06/03 09:43:10;;;;;;;1.65;0.90;;;;;;;18.74;43.54;102473.81;4963494;28;20045;-77
2023/06/03 09:45:37;;;;;;;1.88;0.90;;;;;;;18.79;42.29;102472.88;4939593;28;20038;-77
2023/06/03 09:48:05;;;;;;;1.75;0.82;;;;;;;18.68;42.87;102467.59;4951178;28;20746;-77
2023/06/03 09:50:32;;;;;;;0.98;0.88;;;;;;;18.79;42.82;102458.63;4954933;28;20039;-77
2023/06/03 09:53:00;;;;;;;2.75;0.98;;;;;;;18.90;43.19;102467.50;4920788;28;20058;-77
2023/06/03 09:55:35;;;;;;;1.00;0.63;;;;;;;18.89;41.13;102476.41;4968661;28;20038;-77
2023/06/03 09:58:04;;;;;;;2.25;0.82;;;;;;;18.81;42.08;102473.78;4979164;28;20050;-76
2023/06/03 10:00:48;;;;;;;0.80;0.80;;;;;;;18.70;40.51;102471.13;4938819;28;20468;-76
2023/06/03 10:03:18;;;;;;;1.38;0.75;;;;;;;18.69;43.66;102471.13;4969143;28;20085;-76
2023/06/03 10:05:46;;;;;;;1.43;0.67;;;;;;;18.68;41.85;102478.25;4994827;28;20108;-77
2023/06/03 10:08:13;;;;;;;1.85;0.93;;;;;;;18.68;43.66;102467.59;4964926;28;20305;-76
2023/06/03 10:11:01;;;;;;;3.55;0.82;;;;;;;18.73;41.56;102469.34;4934955;28;20058;-76
2023/06/03 10:13:29;;;;;;;3.08;0.73;;;;;;;18.78;42.36;102467.53;4971518;28;20043;-76
2023/06/03 10:15:58;;;;;;;2.10;0.70;;;;;;;18.82;42.22;102464.00;4942285;28;20452;-76
2023/06/03 10:18:36;;;;;;;0.80;0.68;;;;;;;18.91;41.79;102463.94;4973214;28;20042;-77
2023/06/03 10:21:09;;;;;;;2.42;0.80;;;;;;;18.93;41.01;102471.94;4991986;28;20057;-76
2023/06/03 10:23:39;;;;;;;3.80;1.02;;;;;;;18.98;41.62;102472.78;4968600;28;20054;-76
2023/06/03 10:26:07;;;;;;;0.80;0.68;;;;;;;19.01;41.40;102460.31;4958877;28;20054;-76
2023/06/03 10:28:38;;;;;;;1.38;0.60;;;;;;;19.11;41.96;102460.25;4959955;28;20055;-76
2023/06/03 10:31:07;;;;;;;1.20;0.80;;;;;;;19.29;41.85;102478.81;4959043;28;20050;-75
2023/06/03 10:33:40;;;;;;;1.52;0.70;;;;;;;19.46;41.72;102460.88;4976130;28;20046;-76
2023/06/03 10:36:09;;;;;;;0.93;0.93;;;;;;;19.48;42.04;102467.09;4976430;28;20043;-76
2023/06/03 10:38:39;;;;;;;2.78;0.95;;;;;;;19.63;41.63;102459.84;4958437;28;20077;-76
2023/06/03 10:41:09;;;;;;;3.50;0.73;;;;;;;19.69;41.08;102462.44;4969908;28;20054;-76
2023/06/03 10:43:37;;;;;;;2.90;0.82;;;;;;;19.65;42.85;102456.25;4948129;28;20050;-76
2023/06/03 10:46:05;;;;;;;2.60;0.90;;;;;;;19.72;42.75;102465.16;4978263;28;20062;-76
2023/06/03 10:48:35;;;;;;;1.48;0.90;;;;;;;19.75;43.06;102465.09;4920109;28;20428;-76
2023/06/03 10:51:28;;;;;;;1.83;1.15;;;;;;;19.77;43.67;102460.66;4982447;28;20094;-76
2023/06/03 10:54:16;;;;;;;2.65;1.30;;;;;;;19.83;45.56;102468.59;4971856;28;20504;-76
2023/06/03 10:56:49;;;;;;;1.85;1.00;;;;;;;19.93;46.62;102465.84;4959709;28;20054;-76
2023/06/03 10:59:21;;;;;;;1.63;0.73;;;;;;;19.97;48.77;102463.09;4968870;28;20134;-76
2023/06/03 11:02:00;;;;;;;0.77;0.73;;;;;;;20.05;48.94;102455.00;4985592;28;20038;-76
2023/06/03 11:04:33;;;;;;;2.83;0.90;;;;;;;20.16;47.94;102453.09;4939282;28;20043;-76
2023/06/03 11:07:03;;;;;;;1.55;0.88;;;;;;;20.20;46.73;102464.66;4983243;28;20050;-75
2023/06/03 11:09:40;;;;;;;1.92;0.82;;;;;;;20.16;45.11;102463.78;4962547;28;20034;-75
2023/06/03 11:12:13;;;;;;;6.45;0.93;;;;;;;20.11;44.39;102460.28;4956225;28;20046;-74
2023/06/03 11:14:42;;;;;;;0.98;0.88;;;;;;;20.08;44.02;102454.97;4980671;28;20046;-76
2023/06/03 11:17:12;;;;;;;1.00;0.90;;;;;;;20.12;44.96;102464.75;4980755;28;20057;-75
2023/06/03 11:19:47;;;;;;;0.95;0.88;;;;;;;20.17;44.26;102462.00;4948393;28;20084;-77
2023/06/03 11:22:29;;;;;;;4.32;0.60;;;;;;;20.21;45.46;102447.69;4985236;28;20051;-76
2023/06/03 11:25:00;;;;;;;3.03;0.70;;;;;;;20.34;45.83;102448.41;4970239;28;20130;-76
2023/06/03 11:27:29;;;;;;;2.95;0.70;;;;;;;20.43;47.18;102449.22;4954494;28;20046;-75
2023/06/03 11:29:59;;;;;;;4.70;1.15;;;;;;;20.49;47.56;102448.25;4959992;28;20061;-76
2023/06/03 11:32:31;;;;;;;2.28;0.90;;;;;;;20.56;48.31;102455.28;4928944;28;20050;-77
2023/06/03 11:34:59;;;;;;;2.22;0.82;;;;;;;20.53;47.78;102444.63;4916270;28;20058;-78
2023/06/03 11:37:42;;;;;;;1.10;0.90;;;;;;;20.52;48.56;102450.00;4970524;28;20366;-78
2023/06/03 11:40:14;;;;;;;1.30;0.95;;;;;;;20.46;47.58;102453.63;4968530;28;20057;-77